sensor_id;sensor_type;location;lat;lon;timestamp;P1;durP1;ratioP1;P2;durP2;ratioP2
24102;SDS011;12278;53.058;9.028;2023-02-02T00:02:16;11.20;;;4.70;;
24102;SDS011;12278;53.058;9.028;2023-02-02T00:06:21;14.20;;;4.70;;
24102;SDS011;12278;53.058;9.028;2023-02-02T00:10:23;6.27;;;3.03;;
24102;SDS011;12278;53.058;9.028;2023-02-02T00:14:23;12.93;;;2.73;;
24102;SDS011;12278;53.058;9.028;2023-02-02T00:18:37;10.20;;;3.27;;
24102;SDS011;12278;53.058;9.028;2023-02-02T00:22:37;15.10;;;3.50;;
24102;SDS011;12278;53.058;9.028;2023-02-02T00:26:38;11.77;;;3.43;;
24102;SDS011;12278;53.058;9.028;2023-02-02T00:30:43;14.83;;;3.63;;
24102;SDS011;12278;53.058;9.028;2023-02-02T00:34:44;14.73;;;3.37;;
24102;SDS011;12278;53.058;9.028;2023-02-02T00:38:45;12.33;;;2.83;;
24102;SDS011;12278;53.058;9.028;2023-02-02T00:42:47;11.77;;;3.43;;
24102;SDS011;12278;53.058;9.028;2023-02-02T00:46:49;18.60;;;3.10;;
24102;SDS011;12278;53.058;9.028;2023-02-02T00:50:50;8.93;;;3.27;;
24102;SDS011;12278;53.058;9.028;2023-02-02T00:54:51;13.60;;;4.00;;
24102;SDS011;12278;53.058;9.028;2023-02-02T00:58:52;15.10;;;3.93;;
24102;SDS011;12278;53.058;9.028;2023-02-02T01:02:57;9.70;;;3.70;;
24102;SDS011;12278;53.058;9.028;2023-02-02T01:07:03;9.97;;;3.23;;
24102;SDS011;12278;53.058;9.028;2023-02-02T01:11:04;17.43;;;4.37;;
24102;SDS011;12278;53.058;9.028;2023-02-02T01:15:06;12.80;;;3.47;;
24102;SDS011;12278;53.058;9.028;2023-02-02T01:19:08;25.40;;;6.30;;
24102;SDS011;12278;53.058;9.028;2023-02-02T01:23:19;9.70;;;3.40;;
24102;SDS011;12278;53.058;9.028;2023-02-02T01:27:19;13.93;;;4.63;;
24102;SDS011;12278;53.058;9.028;2023-02-02T01:31:20;14.10;;;3.87;;
24102;SDS011;12278;53.058;9.028;2023-02-02T01:35:22;21.03;;;3.57;;
24102;SDS011;12278;53.058;9.028;2023-02-02T01:39:22;7.83;;;3.40;;
24102;SDS011;12278;53.058;9.028;2023-02-02T01:43:24;14.17;;;3.43;;
24102;SDS011;12278;53.058;9.028;2023-02-02T01:47:33;10.97;;;3.07;;
24102;SDS011;12278;53.058;9.028;2023-02-02T01:51:41;9.87;;;3.47;;
24102;SDS011;12278;53.058;9.028;2023-02-02T01:55:46;13.27;;;2.90;;
24102;SDS011;12278;53.058;9.028;2023-02-02T01:59:48;14.93;;;2.83;;
24102;SDS011;12278;53.058;9.028;2023-02-02T02:08:09;19.60;;;4.67;;
24102;SDS011;12278;53.058;9.028;2023-02-02T02:12:17;8.27;;;3.10;;
24102;SDS011;12278;53.058;9.028;2023-02-02T02:42:45;14.50;;;3.97;;
24102;SDS011;12278;53.058;9.028;2023-02-02T02:46:50;14.30;;;5.80;;
24102;SDS011;12278;53.058;9.028;2023-02-02T02:50:51;12.50;;;3.23;;
24102;SDS011;12278;53.058;9.028;2023-02-02T03:04:09;11.73;;;3.37;;
24102;SDS011;12278;53.058;9.028;2023-02-02T03:12:45;8.67;;;2.90;;
24102;SDS011;12278;53.058;9.028;2023-02-02T03:20:54;17.90;;;4.30;;
24102;SDS011;12278;53.058;9.028;2023-02-02T03:24:54;13.50;;;3.10;;
24102;SDS011;12278;53.058;9.028;2023-02-02T03:28:58;10.53;;;3.10;;
24102;SDS011;12278;53.058;9.028;2023-02-02T03:33:00;12.97;;;4.00;;
24102;SDS011;12278;53.058;9.028;2023-02-02T03:37:01;15.07;;;3.57;;
24102;SDS011;12278;53.058;9.028;2023-02-02T03:41:01;10.83;;;4.07;;
24102;SDS011;12278;53.058;9.028;2023-02-02T03:49:15;13.27;;;3.27;;
24102;SDS011;12278;53.058;9.028;2023-02-02T03:53:15;15.33;;;4.30;;
24102;SDS011;12278;53.058;9.028;2023-02-02T03:57:16;11.90;;;4.23;;
24102;SDS011;12278;53.058;9.028;2023-02-02T04:01:24;20.10;;;4.53;;
24102;SDS011;12278;53.058;9.028;2023-02-02T04:05:26;16.07;;;3.63;;
24102;SDS011;12278;53.058;9.028;2023-02-02T04:09:27;13.80;;;3.73;;
24102;SDS011;12278;53.058;9.028;2023-02-02T04:13:28;13.57;;;4.17;;
24102;SDS011;12278;53.058;9.028;2023-02-02T04:17:28;16.67;;;2.93;;
24102;SDS011;12278;53.058;9.028;2023-02-02T04:21:29;19.87;;;4.30;;
24102;SDS011;12278;53.058;9.028;2023-02-02T04:25:29;13.03;;;3.67;;
24102;SDS011;12278;53.058;9.028;2023-02-02T04:29:30;14.50;;;3.93;;
24102;SDS011;12278;53.058;9.028;2023-02-02T04:33:32;17.43;;;3.47;;
24102;SDS011;12278;53.058;9.028;2023-02-02T04:41:37;14.20;;;3.93;;
24102;SDS011;12278;53.058;9.028;2023-02-02T04:45:37;15.63;;;4.47;;
24102;SDS011;12278;53.058;9.028;2023-02-02T04:49:38;17.97;;;3.87;;
24102;SDS011;12278;53.058;9.028;2023-02-02T04:53:40;20.43;;;3.27;;
24102;SDS011;12278;53.058;9.028;2023-02-02T04:57:41;21.23;;;3.77;;
24102;SDS011;12278;53.058;9.028;2023-02-02T05:01:42;17.77;;;4.97;;
24102;SDS011;12278;53.058;9.028;2023-02-02T05:10:17;20.80;;;4.73;;
24102;SDS011;12278;53.058;9.028;2023-02-02T05:14:28;21.00;;;5.00;;
24102;SDS011;12278;53.058;9.028;2023-02-02T05:18:31;15.40;;;4.20;;
24102;SDS011;12278;53.058;9.028;2023-02-02T05:22:32;14.33;;;3.93;;
24102;SDS011;12278;53.058;9.028;2023-02-02T05:26:34;11.67;;;3.17;;
24102;SDS011;12278;53.058;9.028;2023-02-02T05:35:01;14.77;;;3.40;;
24102;SDS011;12278;53.058;9.028;2023-02-02T05:39:02;11.47;;;3.43;;
24102;SDS011;12278;53.058;9.028;2023-02-02T05:43:04;15.33;;;3.80;;
24102;SDS011;12278;53.058;9.028;2023-02-02T05:47:04;19.67;;;3.70;;
24102;SDS011;12278;53.058;9.028;2023-02-02T05:51:06;19.63;;;4.40;;
24102;SDS011;12278;53.058;9.028;2023-02-02T05:55:13;24.57;;;4.10;;
24102;SDS011;12278;53.058;9.028;2023-02-02T05:59:16;16.50;;;4.67;;
24102;SDS011;12278;53.058;9.028;2023-02-02T06:03:17;13.73;;;4.03;;
24102;SDS011;12278;53.058;9.028;2023-02-02T06:11:35;9.93;;;3.07;;
24102;SDS011;12278;53.058;9.028;2023-02-02T06:15:38;14.03;;;4.27;;
24102;SDS011;12278;53.058;9.028;2023-02-02T06:19:41;14.97;;;3.83;;
24102;SDS011;12278;53.058;9.028;2023-02-02T06:23:41;17.20;;;3.57;;
24102;SDS011;12278;53.058;9.028;2023-02-02T06:27:55;17.33;;;4.50;;
24102;SDS011;12278;53.058;9.028;2023-02-02T06:31:56;16.90;;;4.30;;
24102;SDS011;12278;53.058;9.028;2023-02-02T06:35:58;10.37;;;3.50;;
24102;SDS011;12278;53.058;9.028;2023-02-02T06:40:00;12.67;;;4.23;;
24102;SDS011;12278;53.058;9.028;2023-02-02T06:44:00;21.93;;;3.57;;
24102;SDS011;12278;53.058;9.028;2023-02-02T06:48:01;15.33;;;3.57;;
24102;SDS011;12278;53.058;9.028;2023-02-02T06:52:07;12.50;;;4.20;;
24102;SDS011;12278;53.058;9.028;2023-02-02T06:56:08;28.50;;;5.80;;
24102;SDS011;12278;53.058;9.028;2023-02-02T07:00:11;17.30;;;4.47;;
24102;SDS011;12278;53.058;9.028;2023-02-02T07:04:13;14.43;;;4.13;;
24102;SDS011;12278;53.058;9.028;2023-02-02T07:08:13;17.37;;;4.87;;
24102;SDS011;12278;53.058;9.028;2023-02-02T07:12:14;16.67;;;4.53;;
24102;SDS011;12278;53.058;9.028;2023-02-02T07:16:15;17.03;;;5.23;;
24102;SDS011;12278;53.058;9.028;2023-02-02T07:20:17;14.20;;;4.57;;
24102;SDS011;12278;53.058;9.028;2023-02-02T07:24:17;11.63;;;4.27;;
24102;SDS011;12278;53.058;9.028;2023-02-02T07:28:18;19.33;;;4.27;;
24102;SDS011;12278;53.058;9.028;2023-02-02T07:32:19;16.53;;;3.93;;
24102;SDS011;12278;53.058;9.028;2023-02-02T07:36:21;16.43;;;5.97;;
24102;SDS011;12278;53.058;9.028;2023-02-02T07:40:23;26.70;;;6.20;;
24102;SDS011;12278;53.058;9.028;2023-02-02T07:44:24;22.27;;;5.20;;
24102;SDS011;12278;53.058;9.028;2023-02-02T07:48:25;16.33;;;4.47;;
24102;SDS011;12278;53.058;9.028;2023-02-02T07:52:27;16.43;;;4.87;;
24102;SDS011;12278;53.058;9.028;2023-02-02T07:56:28;20.47;;;5.57;;
24102;SDS011;12278;53.058;9.028;2023-02-02T08:00:29;23.67;;;4.77;;
24102;SDS011;12278;53.058;9.028;2023-02-02T08:04:29;16.60;;;3.67;;
24102;SDS011;12278;53.058;9.028;2023-02-02T08:08:32;22.30;;;4.63;;
24102;SDS011;12278;53.058;9.028;2023-02-02T08:12:32;14.07;;;4.27;;
24102;SDS011;12278;53.058;9.028;2023-02-02T08:16:33;11.50;;;4.10;;
24102;SDS011;12278;53.058;9.028;2023-02-02T08:20:34;17.50;;;3.93;;
24102;SDS011;12278;53.058;9.028;2023-02-02T08:24:34;16.60;;;4.23;;
24102;SDS011;12278;53.058;9.028;2023-02-02T08:28:40;15.77;;;4.87;;
24102;SDS011;12278;53.058;9.028;2023-02-02T08:32:41;15.97;;;4.17;;
24102;SDS011;12278;53.058;9.028;2023-02-02T08:36:42;19.63;;;5.17;;
24102;SDS011;12278;53.058;9.028;2023-02-02T08:40:47;16.70;;;4.13;;
24102;SDS011;12278;53.058;9.028;2023-02-02T08:44:48;16.77;;;4.70;;
24102;SDS011;12278;53.058;9.028;2023-02-02T08:48:48;20.80;;;4.27;;
24102;SDS011;12278;53.058;9.028;2023-02-02T08:52:49;14.97;;;4.03;;
24102;SDS011;12278;53.058;9.028;2023-02-02T08:56:50;14.20;;;4.97;;
24102;SDS011;12278;53.058;9.028;2023-02-02T09:00:50;19.83;;;5.13;;
24102;SDS011;12278;53.058;9.028;2023-02-02T09:04:51;16.13;;;4.60;;
24102;SDS011;12278;53.058;9.028;2023-02-02T09:08:51;17.50;;;4.53;;
24102;SDS011;12278;53.058;9.028;2023-02-02T09:16:57;22.10;;;5.20;;
24102;SDS011;12278;53.058;9.028;2023-02-02T09:20:58;12.40;;;4.43;;
24102;SDS011;12278;53.058;9.028;2023-02-02T09:25:00;16.33;;;6.10;;
24102;SDS011;12278;53.058;9.028;2023-02-02T09:29:02;18.83;;;4.73;;
24102;SDS011;12278;53.058;9.028;2023-02-02T09:33:04;22.17;;;5.90;;
24102;SDS011;12278;53.058;9.028;2023-02-02T09:37:04;14.53;;;4.47;;
24102;SDS011;12278;53.058;9.028;2023-02-02T09:54:09;12.37;;;4.20;;
24102;SDS011;12278;53.058;9.028;2023-02-02T10:02:38;12.80;;;3.57;;
24102;SDS011;12278;53.058;9.028;2023-02-02T10:06:44;15.65;;;4.63;;
24102;SDS011;12278;53.058;9.028;2023-02-02T10:10:50;10.75;;;3.53;;
24102;SDS011;12278;53.058;9.028;2023-02-02T10:19:16;16.98;;;3.47;;
24102;SDS011;12278;53.058;9.028;2023-02-02T10:23:22;10.48;;;3.33;;
24102;SDS011;12278;53.058;9.028;2023-02-02T10:27:37;12.48;;;3.70;;
24102;SDS011;12278;53.058;9.028;2023-02-02T10:36:14;18.40;;;4.43;;
24102;SDS011;12278;53.058;9.028;2023-02-02T10:44:49;12.90;;;3.50;;
24102;SDS011;12278;53.058;9.028;2023-02-02T10:48:59;15.93;;;3.38;;
24102;SDS011;12278;53.058;9.028;2023-02-02T10:53:09;15.10;;;3.42;;
24102;SDS011;12278;53.058;9.028;2023-02-02T10:57:13;7.55;;;2.70;;
24102;SDS011;12278;53.058;9.028;2023-02-02T11:01:18;15.70;;;4.03;;
24102;SDS011;12278;53.058;9.028;2023-02-02T11:05:23;17.63;;;3.85;;
24102;SDS011;12278;53.058;9.028;2023-02-02T11:09:44;17.73;;;4.40;;
24102;SDS011;12278;53.058;9.028;2023-02-02T11:13:47;14.80;;;3.45;;
24102;SDS011;12278;53.058;9.028;2023-02-02T11:18:02;10.70;;;3.60;;
24102;SDS011;12278;53.058;9.028;2023-02-02T11:22:34;11.05;;;3.03;;
24102;SDS011;12278;53.058;9.028;2023-02-02T11:35:38;11.70;;;4.05;;
24102;SDS011;12278;53.058;9.028;2023-02-02T11:40:16;19.67;;;3.90;;
24102;SDS011;12278;53.058;9.028;2023-02-02T11:44:27;11.18;;;3.30;;
24102;SDS011;12278;53.058;9.028;2023-02-02T11:48:33;18.48;;;3.95;;
24102;SDS011;12278;53.058;9.028;2023-02-02T11:52:36;9.50;;;2.92;;
24102;SDS011;12278;53.058;9.028;2023-02-02T11:56:48;13.50;;;3.58;;
24102;SDS011;12278;53.058;9.028;2023-02-02T12:00:57;8.90;;;3.58;;
24102;SDS011;12278;53.058;9.028;2023-02-02T12:09:25;11.10;;;3.67;;
24102;SDS011;12278;53.058;9.028;2023-02-02T12:13:45;13.93;;;4.18;;
24102;SDS011;12278;53.058;9.028;2023-02-02T12:17:47;12.82;;;3.83;;
24102;SDS011;12278;53.058;9.028;2023-02-02T12:21:58;14.05;;;3.53;;
24102;SDS011;12278;53.058;9.028;2023-02-02T12:30:34;11.98;;;2.85;;
24102;SDS011;12278;53.058;9.028;2023-02-02T12:39:08;9.55;;;3.10;;
24102;SDS011;12278;53.058;9.028;2023-02-02T13:00:59;14.52;;;3.17;;
24102;SDS011;12278;53.058;9.028;2023-02-02T13:09:16;9.73;;;3.60;;
24102;SDS011;12278;53.058;9.028;2023-02-02T13:13:28;14.68;;;4.47;;
24102;SDS011;12278;53.058;9.028;2023-02-02T13:17:38;11.43;;;3.80;;
24102;SDS011;12278;53.058;9.028;2023-02-02T13:21:48;12.88;;;3.10;;
24102;SDS011;12278;53.058;9.028;2023-02-02T13:25:59;13.63;;;3.67;;
24102;SDS011;12278;53.058;9.028;2023-02-02T13:30:13;13.00;;;3.45;;
24102;SDS011;12278;53.058;9.028;2023-02-02T13:34:41;9.40;;;4.35;;
24102;SDS011;12278;53.058;9.028;2023-02-02T13:38:48;11.98;;;3.78;;
24102;SDS011;12278;53.058;9.028;2023-02-02T13:47:19;10.73;;;3.33;;
24102;SDS011;12278;53.058;9.028;2023-02-02T13:51:40;12.90;;;4.28;;
24102;SDS011;12278;53.058;9.028;2023-02-02T14:04:34;15.25;;;4.43;;
24102;SDS011;12278;53.058;9.028;2023-02-02T14:08:35;12.90;;;4.13;;
24102;SDS011;12278;53.058;9.028;2023-02-02T14:12:42;14.30;;;4.63;;
24102;SDS011;12278;53.058;9.028;2023-02-02T14:16:44;16.42;;;3.83;;
24102;SDS011;12278;53.058;9.028;2023-02-02T14:20:47;9.32;;;3.38;;
24102;SDS011;12278;53.058;9.028;2023-02-02T14:24:49;12.10;;;3.58;;
24102;SDS011;12278;53.058;9.028;2023-02-02T14:28:52;9.32;;;3.65;;
24102;SDS011;12278;53.058;9.028;2023-02-02T14:32:53;9.43;;;3.25;;
24102;SDS011;12278;53.058;9.028;2023-02-02T14:54:38;10.57;;;3.47;;
24102;SDS011;12278;53.058;9.028;2023-02-02T14:58:45;12.02;;;3.35;;
24102;SDS011;12278;53.058;9.028;2023-02-02T15:02:56;9.50;;;3.13;;
24102;SDS011;12278;53.058;9.028;2023-02-02T15:11:54;5.63;;;2.45;;
24102;SDS011;12278;53.058;9.028;2023-02-02T15:16:02;13.53;;;3.37;;
24102;SDS011;12278;53.058;9.028;2023-02-02T15:20:27;8.57;;;3.10;;
24102;SDS011;12278;53.058;9.028;2023-02-02T15:24:32;12.93;;;3.97;;
24102;SDS011;12278;53.058;9.028;2023-02-02T15:32:43;10.90;;;2.67;;
24102;SDS011;12278;53.058;9.028;2023-02-02T15:36:45;11.47;;;3.60;;
24102;SDS011;12278;53.058;9.028;2023-02-02T15:40:50;11.23;;;3.43;;
24102;SDS011;12278;53.058;9.028;2023-02-02T15:44:51;9.90;;;5.00;;
24102;SDS011;12278;53.058;9.028;2023-02-02T15:53:17;9.27;;;2.90;;
24102;SDS011;12278;53.058;9.028;2023-02-02T16:01:30;9.30;;;3.57;;
24102;SDS011;12278;53.058;9.028;2023-02-02T16:09:36;7.30;;;3.13;;
24102;SDS011;12278;53.058;9.028;2023-02-02T16:13:39;10.77;;;3.40;;
24102;SDS011;12278;53.058;9.028;2023-02-02T16:18:01;7.40;;;3.03;;
24102;SDS011;12278;53.058;9.028;2023-02-02T16:22:05;9.17;;;3.13;;
24102;SDS011;12278;53.058;9.028;2023-02-02T16:26:10;9.33;;;3.40;;
24102;SDS011;12278;53.058;9.028;2023-02-02T16:30:22;5.87;;;4.80;;
24102;SDS011;12278;53.058;9.028;2023-02-02T16:38:40;10.63;;;4.57;;
24102;SDS011;12278;53.058;9.028;2023-02-02T16:42:41;11.83;;;3.30;;
24102;SDS011;12278;53.058;9.028;2023-02-02T16:46:43;10.10;;;3.50;;
24102;SDS011;12278;53.058;9.028;2023-02-02T16:50:46;6.30;;;3.77;;
24102;SDS011;12278;53.058;9.028;2023-02-02T16:55:01;6.47;;;4.07;;
24102;SDS011;12278;53.058;9.028;2023-02-02T16:59:25;5.93;;;3.33;;
24102;SDS011;12278;53.058;9.028;2023-02-02T17:03:28;8.83;;;3.80;;
24102;SDS011;12278;53.058;9.028;2023-02-02T17:07:32;10.03;;;3.10;;
24102;SDS011;12278;53.058;9.028;2023-02-02T17:11:34;7.97;;;3.80;;
24102;SDS011;12278;53.058;9.028;2023-02-02T17:15:35;7.53;;;3.47;;
24102;SDS011;12278;53.058;9.028;2023-02-02T17:19:36;10.47;;;3.77;;
24102;SDS011;12278;53.058;9.028;2023-02-02T17:23:36;8.90;;;3.30;;
24102;SDS011;12278;53.058;9.028;2023-02-02T17:27:38;9.57;;;3.70;;
24102;SDS011;12278;53.058;9.028;2023-02-02T17:31:38;6.33;;;2.90;;
24102;SDS011;12278;53.058;9.028;2023-02-02T17:35:39;4.37;;;3.00;;
24102;SDS011;12278;53.058;9.028;2023-02-02T17:39:40;9.40;;;3.53;;
24102;SDS011;12278;53.058;9.028;2023-02-02T17:43:41;9.40;;;3.77;;
24102;SDS011;12278;53.058;9.028;2023-02-02T17:47:43;8.83;;;3.77;;
24102;SDS011;12278;53.058;9.028;2023-02-02T17:51:43;4.13;;;2.80;;
24102;SDS011;12278;53.058;9.028;2023-02-02T17:55:51;10.03;;;3.77;;
24102;SDS011;12278;53.058;9.028;2023-02-02T17:59:52;8.03;;;2.77;;
24102;SDS011;12278;53.058;9.028;2023-02-02T18:03:53;6.70;;;3.97;;
24102;SDS011;12278;53.058;9.028;2023-02-02T18:07:54;4.47;;;3.43;;
24102;SDS011;12278;53.058;9.028;2023-02-02T18:16:42;6.53;;;3.10;;
24102;SDS011;12278;53.058;9.028;2023-02-02T18:20:43;8.40;;;3.67;;
24102;SDS011;12278;53.058;9.028;2023-02-02T18:24:48;5.07;;;3.30;;
24102;SDS011;12278;53.058;9.028;2023-02-02T18:29:01;7.33;;;3.80;;
24102;SDS011;12278;53.058;9.028;2023-02-02T18:37:18;10.00;;;4.50;;
24102;SDS011;12278;53.058;9.028;2023-02-02T18:41:34;9.13;;;3.90;;
24102;SDS011;12278;53.058;9.028;2023-02-02T18:45:35;9.10;;;3.93;;
24102;SDS011;12278;53.058;9.028;2023-02-02T18:49:36;11.30;;;3.13;;
24102;SDS011;12278;53.058;9.028;2023-02-02T18:53:36;5.50;;;3.33;;
24102;SDS011;12278;53.058;9.028;2023-02-02T18:57:37;6.57;;;3.63;;
24102;SDS011;12278;53.058;9.028;2023-02-02T19:01:37;7.87;;;3.47;;
24102;SDS011;12278;53.058;9.028;2023-02-02T19:10:08;8.10;;;3.60;;
24102;SDS011;12278;53.058;9.028;2023-02-02T19:14:20;7.97;;;3.73;;
24102;SDS011;12278;53.058;9.028;2023-02-02T19:18:29;7.07;;;3.50;;
24102;SDS011;12278;53.058;9.028;2023-02-02T19:22:30;9.27;;;4.50;;
24102;SDS011;12278;53.058;9.028;2023-02-02T19:26:32;7.03;;;3.70;;
24102;SDS011;12278;53.058;9.028;2023-02-02T19:30:37;10.60;;;4.70;;
24102;SDS011;12278;53.058;9.028;2023-02-02T19:34:37;12.80;;;4.40;;
24102;SDS011;12278;53.058;9.028;2023-02-02T19:38:43;7.83;;;4.20;;
24102;SDS011;12278;53.058;9.028;2023-02-02T19:42:50;11.00;;;4.57;;
24102;SDS011;12278;53.058;9.028;2023-02-02T19:47:20;11.70;;;4.13;;
24102;SDS011;12278;53.058;9.028;2023-02-02T19:55:39;8.97;;;5.03;;
24102;SDS011;12278;53.058;9.028;2023-02-02T19:59:41;9.63;;;5.00;;
24102;SDS011;12278;53.058;9.028;2023-02-02T20:03:44;10.30;;;5.13;;
24102;SDS011;12278;53.058;9.028;2023-02-02T20:07:46;9.90;;;5.57;;
24102;SDS011;12278;53.058;9.028;2023-02-02T20:11:51;7.63;;;5.10;;
24102;SDS011;12278;53.058;9.028;2023-02-02T20:15:52;9.97;;;5.90;;
24102;SDS011;12278;53.058;9.028;2023-02-02T20:19:54;11.17;;;6.13;;
24102;SDS011;12278;53.058;9.028;2023-02-02T20:23:55;10.20;;;7.13;;
24102;SDS011;12278;53.058;9.028;2023-02-02T20:27:55;8.20;;;5.93;;
24102;SDS011;12278;53.058;9.028;2023-02-02T20:36:13;11.87;;;7.53;;
24102;SDS011;12278;53.058;9.028;2023-02-02T20:40:38;13.67;;;8.77;;
24102;SDS011;12278;53.058;9.028;2023-02-02T20:44:39;11.70;;;8.47;;
24102;SDS011;12278;53.058;9.028;2023-02-02T20:48:40;11.73;;;8.53;;
24102;SDS011;12278;53.058;9.028;2023-02-02T20:52:41;12.57;;;9.30;;
24102;SDS011;12278;53.058;9.028;2023-02-02T20:56:42;11.60;;;9.60;;
24102;SDS011;12278;53.058;9.028;2023-02-02T21:00:52;12.43;;;8.73;;
24102;SDS011;12278;53.058;9.028;2023-02-02T21:05:11;15.87;;;8.90;;
24102;SDS011;12278;53.058;9.028;2023-02-02T21:09:11;15.83;;;10.03;;
24102;SDS011;12278;53.058;9.028;2023-02-02T21:13:12;13.43;;;9.83;;
24102;SDS011;12278;53.058;9.028;2023-02-02T21:17:13;12.33;;;10.10;;
24102;SDS011;12278;53.058;9.028;2023-02-02T21:21:14;13.43;;;10.87;;
24102;SDS011;12278;53.058;9.028;2023-02-02T21:25:15;13.80;;;9.87;;
24102;SDS011;12278;53.058;9.028;2023-02-02T21:29:16;16.80;;;10.97;;
24102;SDS011;12278;53.058;9.028;2023-02-02T21:33:30;13.93;;;10.13;;
24102;SDS011;12278;53.058;9.028;2023-02-02T21:37:33;16.13;;;10.33;;
24102;SDS011;12278;53.058;9.028;2023-02-02T21:41:35;12.93;;;9.10;;
24102;SDS011;12278;53.058;9.028;2023-02-02T21:45:36;14.20;;;10.17;;
24102;SDS011;12278;53.058;9.028;2023-02-02T21:49:38;13.07;;;8.40;;
24102;SDS011;12278;53.058;9.028;2023-02-02T21:53:39;16.40;;;11.33;;
24102;SDS011;12278;53.058;9.028;2023-02-02T21:57:39;14.60;;;10.23;;
24102;SDS011;12278;53.058;9.028;2023-02-02T22:01:41;14.67;;;9.90;;
24102;SDS011;12278;53.058;9.028;2023-02-02T22:05:42;15.00;;;10.90;;
24102;SDS011;12278;53.058;9.028;2023-02-02T22:09:43;16.57;;;10.97;;
24102;SDS011;12278;53.058;9.028;2023-02-02T22:13:48;17.17;;;11.53;;
24102;SDS011;12278;53.058;9.028;2023-02-02T22:17:49;17.27;;;11.57;;
24102;SDS011;12278;53.058;9.028;2023-02-02T22:21:50;16.03;;;11.40;;
24102;SDS011;12278;53.058;9.028;2023-02-02T22:25:52;17.37;;;12.10;;
24102;SDS011;12278;53.058;9.028;2023-02-02T22:30:09;19.57;;;12.67;;
24102;SDS011;12278;53.058;9.028;2023-02-02T22:34:20;18.43;;;11.67;;
24102;SDS011;12278;53.058;9.028;2023-02-02T22:38:21;16.83;;;11.73;;
24102;SDS011;12278;53.058;9.028;2023-02-02T22:42:23;19.77;;;12.90;;
24102;SDS011;12278;53.058;9.028;2023-02-02T22:46:23;16.93;;;12.27;;
24102;SDS011;12278;53.058;9.028;2023-02-02T22:50:27;17.33;;;10.07;;
24102;SDS011;12278;53.058;9.028;2023-02-02T22:54:29;16.93;;;10.30;;
24102;SDS011;12278;53.058;9.028;2023-02-02T22:58:30;13.60;;;9.23;;
24102;SDS011;12278;53.058;9.028;2023-02-02T23:06:58;12.93;;;9.00;;
24102;SDS011;12278;53.058;9.028;2023-02-02T23:10:59;15.10;;;9.17;;
24102;SDS011;12278;53.058;9.028;2023-02-02T23:14:59;12.77;;;9.13;;
24102;SDS011;12278;53.058;9.028;2023-02-02T23:23:23;15.20;;;10.63;;
24102;SDS011;12278;53.058;9.028;2023-02-02T23:27:24;11.37;;;8.73;;
24102;SDS011;12278;53.058;9.028;2023-02-02T23:31:34;15.97;;;9.67;;
24102;SDS011;12278;53.058;9.028;2023-02-02T23:35:35;14.13;;;8.87;;
24102;SDS011;12278;53.058;9.028;2023-02-02T23:39:36;14.43;;;9.73;;
24102;SDS011;12278;53.058;9.028;2023-02-02T23:43:36;15.47;;;10.27;;
24102;SDS011;12278;53.058;9.028;2023-02-02T23:47:37;15.37;;;11.00;;
24102;SDS011;12278;53.058;9.028;2023-02-02T23:51:38;11.97;;;9.00;;
24102;SDS011;12278;53.058;9.028;2023-02-02T23:55:39;10.97;;;8.73;;
24102;SDS011;12278;53.058;9.028;2023-02-02T23:59:41;14.23;;;10.30;;
